createdAt,value
2022-10-20T00:04:46.544Z,101755.13
2022-10-20T00:09:36.158Z,101732.69
2022-10-20T00:14:25.819Z,101735.25
2022-10-20T00:19:15.698Z,101725.72
2022-10-20T00:24:08.118Z,101723.03
2022-10-20T00:28:58.366Z,101727.50
2022-10-20T00:33:48.195Z,101719.66
2022-10-20T00:38:38.847Z,101723.09
2022-10-20T00:43:44.642Z,101713.63
2022-10-20T00:48:35.481Z,101713.63
2022-10-20T00:53:27.042Z,101706.66
2022-10-20T00:58:17.429Z,101693.69
2022-10-20T01:03:14.697Z,101687.69
2022-10-20T01:08:04.538Z,101675.53
2022-10-20T01:13:01.436Z,101652.88
2022-10-20T01:18:02.536Z,101662.59
2022-10-20T01:23:43.568Z,101646.22
2022-10-20T01:28:42.405Z,101652.22
2022-10-20T01:33:42.616Z,101657.28
2022-10-20T01:38:39.458Z,101646.06
2022-10-20T01:43:34.696Z,101621.91
2022-10-20T01:48:31.200Z,101602.03
2022-10-20T01:53:22.302Z,101613.25
2022-10-20T01:58:45.724Z,101601.19
2022-10-20T02:03:48.629Z,101587.19
2022-10-20T02:08:46.139Z,101598.56
2022-10-20T02:13:39.764Z,101589.88
2022-10-20T02:18:33.581Z,101563.09
2022-10-20T02:23:26.237Z,101553.63
2022-10-20T02:28:18.457Z,101534.66
2022-10-20T02:33:08.973Z,101545.00
2022-10-20T02:37:59.647Z,101522.56
2022-10-20T02:42:52.039Z,101508.75
2022-10-20T02:47:41.738Z,101481.94
2022-10-20T02:52:31.626Z,101495.91
2022-10-20T02:57:22.059Z,101482.13
2022-10-20T03:02:15.505Z,101469.09
2022-10-20T03:07:05.242Z,101467.50
2022-10-20T03:11:55.712Z,101459.75
2022-10-20T03:16:45.587Z,101447.59
2022-10-20T03:21:38.140Z,101452.84
2022-10-20T03:26:28.283Z,101461.53
2022-10-20T03:31:18.195Z,101452.94
2022-10-20T03:36:08.689Z,101440.88
2022-10-20T03:45:51.790Z,101421.09
2022-10-20T03:50:42.191Z,101429.78
2022-10-20T03:55:31.817Z,101428.09
2022-10-20T04:00:24.547Z,101430.69
2022-10-20T04:05:15.853Z,101421.25
2022-10-20T04:10:05.750Z,101416.97
2022-10-20T04:14:55.349Z,101417.91
2022-10-20T04:19:47.584Z,101408.44
2022-10-20T04:24:37.320Z,101409.34
2022-10-20T04:29:26.954Z,101403.31
2022-10-20T04:34:16.562Z,101412.81
2022-10-20T04:39:11.417Z,101406.78
2022-10-20T04:44:01.335Z,101405.06
2022-10-20T04:48:50.919Z,101415.44
2022-10-20T04:53:41.906Z,101397.31
2022-10-20T04:58:34.267Z,101367.22
2022-10-20T05:03:24.269Z,101345.59
2022-10-20T05:08:13.918Z,101360.28
2022-10-20T05:13:03.539Z,101370.59
2022-10-20T05:17:55.806Z,101342.22
2022-10-20T05:22:45.435Z,101332.78
2022-10-20T05:27:35.186Z,101322.41
2022-10-20T05:32:25.074Z,101319.78
2022-10-20T05:37:18.449Z,101314.59
2022-10-20T05:42:09.453Z,101313.75
2022-10-20T05:47:00.160Z,101322.34
2022-10-20T05:51:51.455Z,101331.81
2022-10-20T05:56:45.753Z,101328.38
2022-10-20T06:01:48.484Z,101330.91
2022-10-20T06:06:40.203Z,101311.97
2022-10-20T06:11:34.716Z,101292.16
2022-10-20T06:16:32.740Z,101288.75
2022-10-20T06:21:25.406Z,101302.53
2022-10-20T06:26:17.717Z,101307.72
2022-10-20T06:31:13.994Z,101318.06
2022-10-20T06:36:06.642Z,101319.84
2022-10-20T06:40:56.631Z,101312.09
2022-10-20T06:45:46.259Z,101287.03
2022-10-20T06:50:36.307Z,101276.72
2022-10-20T06:55:28.601Z,101282.91
2022-10-20T07:00:18.746Z,101267.31
2022-10-20T07:05:09.509Z,101291.63
2022-10-20T07:09:59.123Z,101280.44
2022-10-20T07:14:51.549Z,101283.09
2022-10-20T07:19:41.155Z,101296.03
2022-10-20T07:24:31.013Z,101289.19
2022-10-20T07:29:20.862Z,101281.47
2022-10-20T07:34:30.164Z,101265.94
2022-10-20T07:39:19.874Z,101279.00
2022-10-20T07:44:11.206Z,101282.50
2022-10-20T07:49:23.849Z,101292.00
2022-10-20T07:54:14.119Z,101281.75
2022-10-20T07:59:03.790Z,101281.81
2022-10-20T08:03:53.457Z,101282.75
2022-10-20T08:08:43.184Z,101290.56
2022-10-20T08:13:35.846Z,101270.78
2022-10-20T08:18:27.315Z,101271.75
2022-10-20T08:23:17.148Z,101272.66
2022-10-20T08:28:07.188Z,101267.53
2022-10-20T08:33:00.308Z,101262.44
2022-10-20T08:37:50.358Z,101263.38
2022-10-20T08:42:45.210Z,101262.63
2022-10-20T08:47:39.559Z,101252.34
2022-10-20T08:52:32.206Z,101253.31
2022-10-20T08:57:25.856Z,101231.72
2022-10-20T09:02:19.205Z,101235.25
2022-10-20T09:07:23.139Z,101218.03
2022-10-20T09:12:16.042Z,101214.59
2022-10-20T09:17:11.315Z,101204.25
2022-10-20T09:22:07.124Z,101222.41
2022-10-20T09:26:59.644Z,101230.19
2022-10-20T09:31:56.101Z,101224.16
2022-10-20T09:36:51.250Z,101224.19
2022-10-20T09:41:42.566Z,101221.56
2022-10-20T09:46:37.244Z,101234.56
2022-10-20T09:51:33.396Z,101222.44
2022-10-20T09:56:31.626Z,101218.13
2022-10-20T10:01:22.585Z,101178.28
2022-10-20T10:06:24.559Z,101188.69
2022-10-20T10:11:21.823Z,101196.47
2022-10-20T10:16:14.347Z,101179.19
2022-10-20T10:21:07.331Z,101166.19
2022-10-20T10:26:00.721Z,101158.38
2022-10-20T10:31:09.343Z,101133.25
2022-10-20T10:36:00.885Z,101124.59
2022-10-20T10:41:03.538Z,101102.97
2022-10-20T10:46:00.515Z,101124.59
2022-10-20T10:50:57.604Z,101120.25
2022-10-20T10:55:59.467Z,101106.41
2022-10-20T11:01:04.532Z,101105.53
2022-10-20T11:06:17.347Z,101110.69
2022-10-20T11:11:21.969Z,101112.41
2022-10-20T11:16:27.619Z,101108.94
2022-10-20T11:21:31.938Z,101100.25
2022-10-20T11:26:29.298Z,101099.34
2022-10-20T11:31:29.636Z,101094.13
2022-10-20T11:36:25.634Z,101099.25
2022-10-20T11:41:21.160Z,101107.91
2022-10-20T11:46:15.672Z,101104.38
2022-10-20T11:51:33.504Z,101112.22
2022-10-20T11:56:36.216Z,101104.38
2022-10-20T12:01:38.684Z,101106.97
2022-10-20T12:07:04.469Z,101118.22
2022-10-20T12:12:03.637Z,101106.94
2022-10-20T12:17:22.398Z,101102.59
2022-10-20T12:22:45.473Z,101088.69
2022-10-20T12:27:40.189Z,101089.50
2022-10-20T12:32:57.698Z,101092.03
2022-10-20T12:37:58.602Z,101085.09
2022-10-20T12:42:56.103Z,101077.19
2022-10-20T12:47:59.196Z,101079.66
2022-10-20T12:52:55.459Z,101071.78
2022-10-20T12:57:47.799Z,101079.63
2022-10-20T13:02:54.162Z,101075.25
2022-10-20T13:08:04.529Z,101057.03
2022-10-20T13:12:55.686Z,101051.63
2022-10-20T13:17:59.399Z,101035.59
2022-10-20T13:22:53.319Z,101032.84
2022-10-20T13:27:43.976Z,101029.09
2022-10-20T13:32:48.031Z,101019.28
2022-10-20T13:38:01.634Z,101002.31
2022-10-20T13:43:04.917Z,100995.13
2022-10-20T13:47:59.551Z,101000.84
2022-10-20T13:52:50.939Z,100993.69
2022-10-20T13:57:54.909Z,100998.00
2022-10-20T14:02:54.853Z,100990.78
2022-10-20T14:07:47.353Z,100978.69
2022-10-20T14:12:38.777Z,100989.63
2022-10-20T14:17:33.837Z,100992.00
2022-10-20T14:22:27.511Z,100991.66
2022-10-20T14:27:23.371Z,100988.84
2022-10-20T14:32:19.347Z,100995.84
2022-10-20T14:37:31.910Z,100993.38
2022-10-20T14:42:27.086Z,100987.28
2022-10-20T14:47:21.354Z,100988.16
2022-10-20T14:52:26.803Z,100978.41
2022-10-20T14:57:46.026Z,100981.81
2022-10-20T15:02:42.020Z,100972.25
2022-10-20T15:07:37.838Z,100974.09
2022-10-20T15:12:37.455Z,100978.41
2022-10-20T15:17:37.787Z,100977.47
2022-10-20T15:22:29.072Z,100965.38
2022-10-20T15:27:23.444Z,100968.81
2022-10-20T15:32:14.240Z,100973.19
2022-10-20T15:37:07.486Z,100971.56
2022-10-20T15:41:59.677Z,100974.28
2022-10-20T15:46:55.625Z,100967.38
2022-10-20T15:51:50.923Z,100968.41
2022-10-20T15:56:46.631Z,100975.44
2022-10-20T16:01:38.448Z,100963.41
2022-10-20T16:06:31.713Z,100967.75
2022-10-20T16:11:32.069Z,100966.09
2022-10-20T16:16:23.306Z,100970.50
2022-10-20T16:21:14.504Z,100974.91
2022-10-20T16:26:13.743Z,100975.06
2022-10-20T16:31:11.381Z,100976.91
2022-10-20T16:36:01.054Z,100964.00
2022-10-20T16:40:59.756Z,100967.44
2022-10-20T16:45:51.898Z,100980.41
2022-10-20T16:50:45.238Z,100984.06
2022-10-20T16:55:36.064Z,100975.41
2022-10-20T17:00:28.325Z,100960.06
2022-10-20T17:05:26.407Z,100969.63
2022-10-20T17:10:17.981Z,100955.84
2022-10-20T17:15:12.861Z,100949.88
2022-10-20T17:20:03.431Z,100951.00
2022-10-20T17:24:56.804Z,100953.50
2022-10-20T17:29:47.612Z,100945.69
2022-10-20T17:34:38.669Z,100944.88
2022-10-20T17:39:29.597Z,100937.94
2022-10-20T17:44:23.163Z,100932.88
2022-10-20T17:49:14.062Z,100930.34
2022-10-20T17:54:04.792Z,100931.31
2022-10-20T17:58:55.680Z,100926.28
2022-10-20T18:03:51.044Z,100936.72
2022-10-20T18:08:42.899Z,100923.88
2022-10-20T18:13:34.103Z,100922.22
2022-10-20T18:18:34.654Z,100919.63
2022-10-20T18:23:30.025Z,100917.00
2022-10-20T18:28:26.884Z,100917.06
2022-10-20T18:33:17.469Z,100908.47
2022-10-20T18:38:10.314Z,100931.94
2022-10-20T18:43:06.597Z,100924.13
2022-10-20T18:47:57.460Z,100914.59
2022-10-20T18:52:48.884Z,100915.47
2022-10-20T18:57:41.680Z,100910.22
2022-10-20T19:07:56.993Z,100899.81
2022-10-20T19:12:48.607Z,100903.25
2022-10-20T19:17:43.645Z,100882.44
2022-10-20T19:22:34.539Z,100872.88
2022-10-20T19:27:26.951Z,100872.03
2022-10-20T19:32:18.360Z,100858.16
2022-10-20T19:37:12.454Z,100844.41
2022-10-20T19:42:04.859Z,100854.72
2022-10-20T19:46:55.763Z,100853.94
2022-10-20T19:51:48.307Z,100852.25
2022-10-20T19:56:42.131Z,100853.16
2022-10-20T20:01:32.633Z,100837.66
2022-10-20T20:06:24.805Z,100844.66
2022-10-20T20:11:24.149Z,100844.66
2022-10-20T20:16:17.316Z,100850.81
2022-10-20T20:21:09.170Z,100848.25
2022-10-20T20:26:06.312Z,100853.50
2022-10-20T20:31:04.591Z,100849.22
2022-10-20T20:36:01.870Z,100849.28
2022-10-20T20:40:52.654Z,100864.88
2022-10-20T20:45:44.428Z,100863.16
2022-10-20T20:50:35.121Z,100867.50
2022-10-20T20:55:27.987Z,100865.75
2022-10-20T21:00:19.395Z,100874.47
2022-10-20T21:05:10.735Z,100871.81
2022-10-20T21:10:00.498Z,100864.00
2022-10-20T21:14:52.868Z,100857.16
2022-10-20T21:19:42.448Z,100863.25
2022-10-20T21:24:32.298Z,100861.50
2022-10-20T21:29:22.581Z,100865.00
2022-10-20T21:34:16.316Z,100858.03
2022-10-20T21:39:08.999Z,100855.50
2022-10-20T21:44:02.147Z,100857.22
2022-10-20T21:48:53.749Z,100858.13
2022-10-20T21:53:46.215Z,100843.38
2022-10-20T21:58:36.296Z,100859.78
2022-10-20T22:03:27.383Z,100849.41
2022-10-20T22:08:17.282Z,100832.09
2022-10-20T22:13:09.814Z,100847.63
2022-10-20T22:18:00.113Z,100870.16
2022-10-20T22:22:50.467Z,100862.38
2022-10-20T22:27:43.597Z,100867.56
2022-10-20T22:32:36.465Z,100867.53
2022-10-20T22:37:26.572Z,100859.75
2022-10-20T22:42:18.369Z,100842.41
2022-10-20T22:47:10.862Z,100833.81
2022-10-20T22:52:04.208Z,100835.53
2022-10-20T22:56:55.279Z,100834.72
2022-10-20T23:01:46.065Z,100819.13
2022-10-20T23:06:40.426Z,100821.78
2022-10-20T23:11:35.502Z,100802.06
2022-10-20T23:16:28.822Z,100822.72
2022-10-20T23:21:19.905Z,100812.38
2022-10-20T23:26:11.496Z,100811.53
2022-10-20T23:31:15.512Z,100814.16
2022-10-20T23:36:06.589Z,100814.09
2022-10-20T23:40:57.932Z,100818.47
2022-10-20T23:45:48.249Z,100830.59
2022-10-20T23:50:41.041Z,100836.72
2022-10-20T23:55:31.474Z,100833.25
